sensor_id;sensor_type;location;lat;lon;timestamp;pressure;altitude;pressure_sealevel;temperature;humidity
32933;BME280;19444;50.518;10.870;2022-10-29T00:00:33;97262.69;;;9.86;100.00
32933;BME280;19444;50.518;10.870;2022-10-29T00:03:30;97261.69;;;9.82;100.00
32933;BME280;19444;50.518;10.870;2022-10-29T00:06:27;97254.84;;;9.95;100.00
32933;BME280;19444;50.518;10.870;2022-10-29T00:09:24;97256.91;;;9.79;100.00
32933;BME280;19444;50.518;10.870;2022-10-29T00:12:21;97263.06;;;9.80;100.00
32933;BME280;19444;50.518;10.870;2022-10-29T00:15:18;97250.00;;;9.73;100.00
32933;BME280;19444;50.518;10.870;2022-10-29T00:18:15;97247.91;;;9.94;100.00
32933;BME280;19444;50.518;10.870;2022-10-29T00:21:18;97258.44;;;9.56;100.00
32933;BME280;19444;50.518;10.870;2022-10-29T00:24:15;97263.41;;;9.68;100.00
32933;BME280;19444;50.518;10.870;2022-10-29T00:27:12;97260.56;;;9.59;100.00
32933;BME280;19444;50.518;10.870;2022-10-29T00:30:10;97264.97;;;9.74;100.00
32933;BME280;19444;50.518;10.870;2022-10-29T00:33:07;97254.09;;;9.65;100.00
32933;BME280;19444;50.518;10.870;2022-10-29T00:36:11;97258.44;;;9.56;100.00
32933;BME280;19444;50.518;10.870;2022-10-29T00:39:14;97258.63;;;9.36;100.00
32933;BME280;19444;50.518;10.870;2022-10-29T00:42:14;97261.44;;;9.50;100.00
32933;BME280;19444;50.518;10.870;2022-10-29T00:45:19;97269.13;;;9.27;100.00
32933;BME280;19444;50.518;10.870;2022-10-29T00:48:16;97268.84;;;9.29;100.00
32933;BME280;19444;50.518;10.870;2022-10-29T00:51:14;97266.50;;;9.22;100.00
32933;BME280;19444;50.518;10.870;2022-10-29T00:54:14;97267.38;;;9.12;100.00
32933;BME280;19444;50.518;10.870;2022-10-29T00:57:37;97267.84;;;9.20;100.00
32933;BME280;19444;50.518;10.870;2022-10-29T01:00:34;97255.06;;;9.17;100.00
32933;BME280;19444;50.518;10.870;2022-10-29T01:03:31;97255.94;;;9.07;100.00
32933;BME280;19444;50.518;10.870;2022-10-29T01:06:29;97247.06;;;9.11;100.00
32933;BME280;19444;50.518;10.870;2022-10-29T01:09:26;97253.78;;;9.04;100.00
32933;BME280;19444;50.518;10.870;2022-10-29T01:19:03;97239.00;;;9.17;100.00
32933;BME280;19444;50.518;10.870;2022-10-29T01:22:38;97229.19;;;9.07;100.00
32933;BME280;19444;50.518;10.870;2022-10-29T01:26:12;97231.16;;;8.96;100.00
32933;BME280;19444;50.518;10.870;2022-10-29T01:36:31;97244.53;;;8.91;100.00
32933;BME280;19444;50.518;10.870;2022-10-29T01:39:36;97248.88;;;8.82;100.00
32933;BME280;19444;50.518;10.870;2022-10-29T01:42:47;97243.25;;;8.83;100.00
32933;BME280;19444;50.518;10.870;2022-10-29T01:45:54;97246.50;;;8.75;100.00
32933;BME280;19444;50.518;10.870;2022-10-29T01:48:57;97237.84;;;8.94;100.00
32933;BME280;19444;50.518;10.870;2022-10-29T01:52:00;97241.53;;;9.32;100.00
32933;BME280;19444;50.518;10.870;2022-10-29T01:54:58;97245.06;;;8.93;100.00
32933;BME280;19444;50.518;10.870;2022-10-29T01:57:55;97252.53;;;8.96;100.00
32933;BME280;19444;50.518;10.870;2022-10-29T02:04:52;97258.94;;;8.95;100.00
32933;BME280;19444;50.518;10.870;2022-10-29T02:07:58;97262.75;;;8.84;100.00
32933;BME280;19444;50.518;10.870;2022-10-29T02:11:26;97252.94;;;8.74;100.00
32933;BME280;19444;50.518;10.870;2022-10-29T02:14:36;97257.78;;;8.67;100.00
32933;BME280;19444;50.518;10.870;2022-10-29T02:17:34;97260.78;;;8.61;100.00
32933;BME280;19444;50.518;10.870;2022-10-29T02:20:31;97260.38;;;8.82;100.00
32933;BME280;19444;50.518;10.870;2022-10-29T02:23:28;97260.38;;;8.77;100.00
32933;BME280;19444;50.518;10.870;2022-10-29T02:26:25;97264.03;;;8.52;100.00
32933;BME280;19444;50.518;10.870;2022-10-29T02:29:22;97254.19;;;8.43;100.00
32933;BME280;19444;50.518;10.870;2022-10-29T02:32:19;97258.03;;;8.71;100.00
32933;BME280;19444;50.518;10.870;2022-10-29T02:35:15;97260.56;;;8.52;100.00
32933;BME280;19444;50.518;10.870;2022-10-29T02:38:12;97263.25;;;8.47;100.00
32933;BME280;19444;50.518;10.870;2022-10-29T02:41:09;97256.03;;;8.47;100.00
32933;BME280;19444;50.518;10.870;2022-10-29T02:44:06;97253.06;;;8.49;100.00
32933;BME280;19444;50.518;10.870;2022-10-29T02:47:03;97248.22;;;8.61;100.00
32933;BME280;19444;50.518;10.870;2022-10-29T02:50:00;97246.63;;;8.60;100.00
32933;BME280;19444;50.518;10.870;2022-10-29T02:52:57;97248.00;;;8.47;100.00
32933;BME280;19444;50.518;10.870;2022-10-29T02:55:53;97243.75;;;8.46;100.00
32933;BME280;19444;50.518;10.870;2022-10-29T02:58:51;97240.44;;;8.65;100.00
32933;BME280;19444;50.518;10.870;2022-10-29T03:01:48;97235.16;;;8.54;100.00
32933;BME280;19444;50.518;10.870;2022-10-29T03:04:45;97235.78;;;8.36;100.00
32933;BME280;19444;50.518;10.870;2022-10-29T03:07:42;97236.53;;;8.47;100.00
32933;BME280;19444;50.518;10.870;2022-10-29T03:10:38;97248.22;;;8.61;100.00
32933;BME280;19444;50.518;10.870;2022-10-29T03:13:35;97246.63;;;8.55;100.00
32933;BME280;19444;50.518;10.870;2022-10-29T03:16:33;97240.72;;;8.63;100.00
32933;BME280;19444;50.518;10.870;2022-10-29T03:19:30;97224.50;;;8.49;100.00
32933;BME280;19444;50.518;10.870;2022-10-29T03:22:27;97231.38;;;8.61;100.00
32933;BME280;19444;50.518;10.870;2022-10-29T03:25:24;97236.09;;;8.74;100.00
32933;BME280;19444;50.518;10.870;2022-10-29T03:28:22;97236.59;;;8.37;100.00
32933;BME280;19444;50.518;10.870;2022-10-29T03:31:19;97240.78;;;8.48;100.00
32933;BME280;19444;50.518;10.870;2022-10-29T03:34:16;97238.09;;;8.53;100.00
32933;BME280;19444;50.518;10.870;2022-10-29T03:37:13;97237.31;;;8.52;100.00
32933;BME280;19444;50.518;10.870;2022-10-29T03:40:10;97236.28;;;8.43;100.00
32933;BME280;19444;50.518;10.870;2022-10-29T03:43:07;97232.59;;;8.29;100.00
32933;BME280;19444;50.518;10.870;2022-10-29T03:46:04;97233.13;;;8.26;100.00
32933;BME280;19444;50.518;10.870;2022-10-29T03:49:01;97240.06;;;8.27;100.00
32933;BME280;19444;50.518;10.870;2022-10-29T03:51:58;97236.09;;;8.24;100.00
32933;BME280;19444;50.518;10.870;2022-10-29T03:54:55;97230.19;;;8.33;100.00
32933;BME280;19444;50.518;10.870;2022-10-29T03:57:52;97245.13;;;8.34;100.00
32933;BME280;19444;50.518;10.870;2022-10-29T04:01:01;97233.38;;;8.30;100.00
32933;BME280;19444;50.518;10.870;2022-10-29T04:03:58;97233.69;;;8.23;100.00
32933;BME280;19444;50.518;10.870;2022-10-29T04:06:55;97228.38;;;8.18;100.00
32933;BME280;19444;50.518;10.870;2022-10-29T04:09:52;97231.78;;;8.28;100.00
32933;BME280;19444;50.518;10.870;2022-10-29T04:12:49;97237.63;;;8.41;100.00
32933;BME280;19444;50.518;10.870;2022-10-29T04:15:45;97228.22;;;8.53;100.00
32933;BME280;19444;50.518;10.870;2022-10-29T04:18:42;97248.06;;;8.37;100.00
32933;BME280;19444;50.518;10.870;2022-10-29T04:21:41;97264.91;;;8.33;100.00
32933;BME280;19444;50.518;10.870;2022-10-29T04:24:58;97265.16;;;8.41;100.00
32933;BME280;19444;50.518;10.870;2022-10-29T04:28:15;97264.63;;;8.29;100.00
32933;BME280;19444;50.518;10.870;2022-10-29T04:31:32;97285.47;;;8.32;100.00
32933;BME280;19444;50.518;10.870;2022-10-29T04:34:29;97279.84;;;8.28;100.00
32933;BME280;19444;50.518;10.870;2022-10-29T04:37:28;97288.47;;;8.10;100.00
32933;BME280;19444;50.518;10.870;2022-10-29T04:40:25;97286.03;;;8.19;100.00
32933;BME280;19444;50.518;10.870;2022-10-29T04:43:22;97282.28;;;8.25;100.00
32933;BME280;19444;50.518;10.870;2022-10-29T04:46:19;97278.53;;;8.21;100.00
32933;BME280;19444;50.518;10.870;2022-10-29T04:49:15;97270.84;;;8.14;100.00
32933;BME280;19444;50.518;10.870;2022-10-29T04:52:12;97266.59;;;8.08;100.00
32933;BME280;19444;50.518;10.870;2022-10-29T04:55:09;97278.56;;;8.11;100.00
32933;BME280;19444;50.518;10.870;2022-10-29T04:58:13;97266.25;;;8.35;100.00
32933;BME280;19444;50.518;10.870;2022-10-29T05:01:10;97257.69;;;8.33;100.00
32933;BME280;19444;50.518;10.870;2022-10-29T05:04:07;97265.75;;;8.13;100.00
32933;BME280;19444;50.518;10.870;2022-10-29T05:07:04;97265.00;;;8.07;100.00
32933;BME280;19444;50.518;10.870;2022-10-29T05:10:01;97261.00;;;8.05;100.00
32933;BME280;19444;50.518;10.870;2022-10-29T05:13:08;97256.69;;;8.09;100.00
32933;BME280;19444;50.518;10.870;2022-10-29T05:16:05;97247.56;;;8.25;100.00
32933;BME280;19444;50.518;10.870;2022-10-29T05:19:03;97249.25;;;8.01;100.00
32933;BME280;19444;50.518;10.870;2022-10-29T05:22:00;97254.03;;;8.04;100.00
32933;BME280;19444;50.518;10.870;2022-10-29T05:24:57;97248.13;;;8.12;100.00
32933;BME280;19444;50.518;10.870;2022-10-29T05:28:06;97239.06;;;8.13;100.00
32933;BME280;19444;50.518;10.870;2022-10-29T05:31:03;97243.31;;;8.24;100.00
32933;BME280;19444;50.518;10.870;2022-10-29T05:34:00;97249.91;;;8.32;100.00
32933;BME280;19444;50.518;10.870;2022-10-29T05:36:57;97249.66;;;8.38;100.00
32933;BME280;19444;50.518;10.870;2022-10-29T05:39:54;97258.53;;;8.23;100.00
32933;BME280;19444;50.518;10.870;2022-10-29T05:42:51;97264.13;;;8.22;100.00
32933;BME280;19444;50.518;10.870;2022-10-29T05:45:48;97270.03;;;8.09;100.00
32933;BME280;19444;50.518;10.870;2022-10-29T05:48:45;97270.31;;;8.07;100.00
32933;BME280;19444;50.518;10.870;2022-10-29T05:51:41;97258.22;;;8.30;100.00
32933;BME280;19444;50.518;10.870;2022-10-29T05:54:38;97264.16;;;8.17;100.00
32933;BME280;19444;50.518;10.870;2022-10-29T05:57:35;97265.47;;;8.19;100.00
32933;BME280;19444;50.518;10.870;2022-10-29T06:00:35;97262.78;;;8.19;100.00
32933;BME280;19444;50.518;10.870;2022-10-29T06:03:33;97271.88;;;8.13;100.00
32933;BME280;19444;50.518;10.870;2022-10-29T06:06:30;97274.28;;;8.25;100.00
32933;BME280;19444;50.518;10.870;2022-10-29T06:09:27;97272.97;;;8.17;100.00
32933;BME280;19444;50.518;10.870;2022-10-29T06:12:23;97273.75;;;8.18;100.00
32933;BME280;19444;50.518;10.870;2022-10-29T06:15:21;97275.88;;;8.21;100.00
32933;BME280;19444;50.518;10.870;2022-10-29T06:18:18;97267.28;;;8.29;100.00
32933;BME280;19444;50.518;10.870;2022-10-29T06:21:15;97265.91;;;8.47;100.00
32933;BME280;19444;50.518;10.870;2022-10-29T06:24:12;97260.78;;;8.55;100.00
32933;BME280;19444;50.518;10.870;2022-10-29T06:27:09;97262.88;;;8.64;100.00
32933;BME280;19444;50.518;10.870;2022-10-29T06:30:07;97250.53;;;8.73;100.00
32933;BME280;19444;50.518;10.870;2022-10-29T06:33:04;97251.63;;;8.72;100.00
32933;BME280;19444;50.518;10.870;2022-10-29T06:36:01;97245.13;;;8.83;100.00
32933;BME280;19444;50.518;10.870;2022-10-29T06:38:58;97245.84;;;8.94;100.00
32933;BME280;19444;50.518;10.870;2022-10-29T06:41:55;97239.03;;;9.11;100.00
32933;BME280;19444;50.518;10.870;2022-10-29T06:44:52;97244.06;;;9.18;100.00
32933;BME280;19444;50.518;10.870;2022-10-29T06:47:49;97251.03;;;9.14;100.00
32933;BME280;19444;50.518;10.870;2022-10-29T06:50:46;97247.63;;;9.08;100.00
32933;BME280;19444;50.518;10.870;2022-10-29T06:53:43;97247.84;;;9.12;100.00
32933;BME280;19444;50.518;10.870;2022-10-29T06:56:40;97244.19;;;9.37;100.00
32933;BME280;19444;50.518;10.870;2022-10-29T06:59:37;97242.28;;;9.43;100.00
32933;BME280;19444;50.518;10.870;2022-10-29T07:02:34;97241.38;;;9.52;100.00
32933;BME280;19444;50.518;10.870;2022-10-29T07:05:31;97232.28;;;9.53;100.00
32933;BME280;19444;50.518;10.870;2022-10-29T07:08:28;97241.97;;;9.73;100.00
32933;BME280;19444;50.518;10.870;2022-10-29T07:11:26;97241.09;;;9.78;100.00
32933;BME280;19444;50.518;10.870;2022-10-29T07:14:23;97240.63;;;10.00;100.00
32933;BME280;19444;50.518;10.870;2022-10-29T07:17:19;97240.31;;;10.01;100.00
32933;BME280;19444;50.518;10.870;2022-10-29T07:20:16;97240.00;;;10.08;100.00
32933;BME280;19444;50.518;10.870;2022-10-29T07:23:13;97240.78;;;10.32;100.00
32933;BME280;19444;50.518;10.870;2022-10-29T07:26:10;97247.25;;;10.50;100.00
32933;BME280;19444;50.518;10.870;2022-10-29T07:29:07;97237.91;;;10.66;100.00
32933;BME280;19444;50.518;10.870;2022-10-29T07:32:04;97238.06;;;10.75;100.00
32933;BME280;19444;50.518;10.870;2022-10-29T07:35:01;97238.38;;;10.73;100.00
32933;BME280;19444;50.518;10.870;2022-10-29T07:38:03;97231.47;;;10.67;100.00
32933;BME280;19444;50.518;10.870;2022-10-29T07:41:06;97237.28;;;10.74;100.00
32933;BME280;19444;50.518;10.870;2022-10-29T07:44:03;97249.94;;;10.69;100.00
32933;BME280;19444;50.518;10.870;2022-10-29T07:46:59;97255.03;;;10.70;100.00
32933;BME280;19444;50.518;10.870;2022-10-29T07:49:59;97246.13;;;10.75;100.00
32933;BME280;19444;50.518;10.870;2022-10-29T07:52:59;97253.31;;;10.79;100.00
32933;BME280;19444;50.518;10.870;2022-10-29T07:55:56;97252.22;;;10.80;100.00
32933;BME280;19444;50.518;10.870;2022-10-29T07:58:53;97252.72;;;10.82;100.00
32933;BME280;19444;50.518;10.870;2022-10-29T08:01:50;97250.81;;;11.02;100.00
32933;BME280;19444;50.518;10.870;2022-10-29T08:04:47;97237.84;;;11.09;100.00
32933;BME280;19444;50.518;10.870;2022-10-29T08:07:44;97247.25;;;11.25;100.00
32933;BME280;19444;50.518;10.870;2022-10-29T08:10:41;97248.50;;;11.47;100.00
32933;BME280;19444;50.518;10.870;2022-10-29T08:13:38;97236.59;;;11.53;100.00
32933;BME280;19444;50.518;10.870;2022-10-29T08:16:35;97244.59;;;11.85;100.00
32933;BME280;19444;50.518;10.870;2022-10-29T08:19:31;97231.75;;;12.23;100.00
32933;BME280;19444;50.518;10.870;2022-10-29T08:22:29;97232.78;;;12.14;100.00
32933;BME280;19444;50.518;10.870;2022-10-29T08:25:26;97237.53;;;12.44;100.00
32933;BME280;19444;50.518;10.870;2022-10-29T08:28:23;97245.09;;;12.56;100.00
32933;BME280;19444;50.518;10.870;2022-10-29T08:31:21;97243.78;;;12.53;100.00
32933;BME280;19444;50.518;10.870;2022-10-29T08:34:18;97239.97;;;12.68;100.00
32933;BME280;19444;50.518;10.870;2022-10-29T08:37:15;97243.22;;;12.79;100.00
32933;BME280;19444;50.518;10.870;2022-10-29T08:40:30;97254.78;;;12.79;100.00
32933;BME280;19444;50.518;10.870;2022-10-29T08:47:21;97250.31;;;13.11;100.00
32933;BME280;19444;50.518;10.870;2022-10-29T08:50:36;97245.59;;;13.17;100.00
32933;BME280;19444;50.518;10.870;2022-10-29T08:53:49;97252.28;;;13.19;100.00
32933;BME280;19444;50.518;10.870;2022-10-29T08:57:14;97246.19;;;13.27;100.00
32933;BME280;19444;50.518;10.870;2022-10-29T09:00:22;97237.31;;;13.27;100.00
32933;BME280;19444;50.518;10.870;2022-10-29T09:03:21;97239.38;;;13.30;100.00
32933;BME280;19444;50.518;10.870;2022-10-29T09:06:46;97242.09;;;13.16;100.00
32933;BME280;19444;50.518;10.870;2022-10-29T09:16:56;97233.00;;;14.10;100.00
32933;BME280;19444;50.518;10.870;2022-10-29T09:24:02;97230.28;;;15.36;100.00
32933;BME280;19444;50.518;10.870;2022-10-29T09:27:27;97224.13;;;15.01;100.00
32933;BME280;19444;50.518;10.870;2022-10-29T09:30:30;97237.94;;;14.83;100.00
32933;BME280;19444;50.518;10.870;2022-10-29T09:33:27;97228.72;;;14.92;100.00
32933;BME280;19444;50.518;10.870;2022-10-29T09:36:25;97231.09;;;14.94;100.00
32933;BME280;19444;50.518;10.870;2022-10-29T09:39:38;97226.63;;;14.80;100.00
32933;BME280;19444;50.518;10.870;2022-10-29T09:42:38;97220.44;;;14.80;100.00
32933;BME280;19444;50.518;10.870;2022-10-29T09:45:49;97221.91;;;14.95;100.00
32933;BME280;19444;50.518;10.870;2022-10-29T09:52:35;97214.91;;;15.11;100.00
32933;BME280;19444;50.518;10.870;2022-10-29T09:55:41;97209.78;;;15.27;100.00
32933;BME280;19444;50.518;10.870;2022-10-29T09:58:42;97208.84;;;15.31;100.00
32933;BME280;19444;50.518;10.870;2022-10-29T10:01:41;97207.91;;;15.19;100.00
32933;BME280;19444;50.518;10.870;2022-10-29T10:04:44;97208.63;;;15.45;100.00
32933;BME280;19444;50.518;10.870;2022-10-29T10:11:06;97209.91;;;15.65;100.00
32933;BME280;19444;50.518;10.870;2022-10-29T10:14:19;97221.31;;;15.71;100.00
32933;BME280;19444;50.518;10.870;2022-10-29T10:17:16;97213.22;;;15.53;100.00
32933;BME280;19444;50.518;10.870;2022-10-29T10:20:35;97209.75;;;15.53;100.00
32933;BME280;19444;50.518;10.870;2022-10-29T10:23:40;97199.22;;;15.77;100.00
32933;BME280;19444;50.518;10.870;2022-10-29T10:26:40;97209.09;;;15.73;100.00
32933;BME280;19444;50.518;10.870;2022-10-29T10:29:39;97204.16;;;15.75;100.00
32933;BME280;19444;50.518;10.870;2022-10-29T10:32:36;97201.72;;;15.91;100.00
32933;BME280;19444;50.518;10.870;2022-10-29T10:35:34;97190.13;;;16.91;100.00
32933;BME280;19444;50.518;10.870;2022-10-29T10:38:42;97162.34;;;19.26;100.00
32933;BME280;19444;50.518;10.870;2022-10-29T10:41:41;97161.06;;;18.80;100.00
32933;BME280;19444;50.518;10.870;2022-10-29T10:44:48;97163.31;;;19.78;100.00
32933;BME280;19444;50.518;10.870;2022-10-29T10:47:52;97152.22;;;20.18;100.00
32933;BME280;19444;50.518;10.870;2022-10-29T10:51:22;97151.09;;;19.12;100.00
32933;BME280;19444;50.518;10.870;2022-10-29T10:54:37;97153.34;;;18.94;100.00
32933;BME280;19444;50.518;10.870;2022-10-29T10:57:46;97155.00;;;20.37;100.00
32933;BME280;19444;50.518;10.870;2022-10-29T11:01:13;97153.50;;;19.57;100.00
32933;BME280;19444;50.518;10.870;2022-10-29T11:04:26;97152.53;;;19.81;100.00
32933;BME280;19444;50.518;10.870;2022-10-29T11:07:31;97154.84;;;17.90;100.00
32933;BME280;19444;50.518;10.870;2022-10-29T11:11:03;97167.03;;;17.72;100.00
32933;BME280;19444;50.518;10.870;2022-10-29T11:14:02;97169.50;;;17.20;100.00
32933;BME280;19444;50.518;10.870;2022-10-29T11:17:03;97162.97;;;17.33;100.00
32933;BME280;19444;50.518;10.870;2022-10-29T11:20:12;97161.03;;;17.21;100.00
32933;BME280;19444;50.518;10.870;2022-10-29T11:23:29;97166.09;;;17.23;100.00
32933;BME280;19444;50.518;10.870;2022-10-29T11:26:49;97157.91;;;17.31;100.00
32933;BME280;19444;50.518;10.870;2022-10-29T11:30:05;97160.25;;;17.21;100.00
32933;BME280;19444;50.518;10.870;2022-10-29T11:33:36;97148.97;;;17.31;100.00
32933;BME280;19444;50.518;10.870;2022-10-29T11:36:46;97144.88;;;17.70;100.00
32933;BME280;19444;50.518;10.870;2022-10-29T11:40:21;97138.84;;;17.64;100.00
32933;BME280;19444;50.518;10.870;2022-10-29T11:43:20;97136.66;;;18.03;100.00
32933;BME280;19444;50.518;10.870;2022-10-29T11:46:27;97136.59;;;17.54;100.00
32933;BME280;19444;50.518;10.870;2022-10-29T11:50:10;97133.56;;;17.56;100.00
32933;BME280;19444;50.518;10.870;2022-10-29T11:53:29;97131.56;;;17.89;100.00
32933;BME280;19444;50.518;10.870;2022-10-29T11:56:56;97140.47;;;17.90;100.00
32933;BME280;19444;50.518;10.870;2022-10-29T12:00:13;97138.84;;;17.40;100.00
32933;BME280;19444;50.518;10.870;2022-10-29T12:04:03;97128.38;;;17.18;100.00
32933;BME280;19444;50.518;10.870;2022-10-29T12:14:25;97123.47;;;17.32;100.00
32933;BME280;19444;50.518;10.870;2022-10-29T12:17:40;97124.78;;;17.71;100.00
32933;BME280;19444;50.518;10.870;2022-10-29T12:31:40;97109.31;;;17.72;100.00
32933;BME280;19444;50.518;10.870;2022-10-29T12:34:44;97125.31;;;17.52;100.00
32933;BME280;19444;50.518;10.870;2022-10-29T12:41:18;97099.25;;;17.97;100.00
32933;BME280;19444;50.518;10.870;2022-10-29T12:48:45;97108.88;;;17.94;100.00
32933;BME280;19444;50.518;10.870;2022-10-29T12:52:01;97106.00;;;17.66;100.00
32933;BME280;19444;50.518;10.870;2022-10-29T12:55:01;97096.66;;;17.76;100.00
32933;BME280;19444;50.518;10.870;2022-10-29T12:58:46;97097.75;;;17.38;100.00
32933;BME280;19444;50.518;10.870;2022-10-29T13:01:46;97091.94;;;17.27;100.00
32933;BME280;19444;50.518;10.870;2022-10-29T13:11:20;97103.13;;;17.26;100.00
32933;BME280;19444;50.518;10.870;2022-10-29T13:17:37;97082.03;;;17.31;100.00
32933;BME280;19444;50.518;10.870;2022-10-29T13:20:42;97080.38;;;17.51;100.00
32933;BME280;19444;50.518;10.870;2022-10-29T13:24:02;97073.72;;;17.73;100.00
32933;BME280;19444;50.518;10.870;2022-10-29T13:27:31;97069.41;;;17.60;100.00
32933;BME280;19444;50.518;10.870;2022-10-29T13:30:29;97069.06;;;17.98;100.00
32933;BME280;19444;50.518;10.870;2022-10-29T13:39:19;97069.88;;;17.86;100.00
32933;BME280;19444;50.518;10.870;2022-10-29T13:42:16;97069.22;;;17.77;100.00
32933;BME280;19444;50.518;10.870;2022-10-29T13:45:13;97064.44;;;17.62;100.00
32933;BME280;19444;50.518;10.870;2022-10-29T13:48:22;97071.78;;;17.61;100.00
32933;BME280;19444;50.518;10.870;2022-10-29T13:51:30;97074.50;;;17.49;100.00
32933;BME280;19444;50.518;10.870;2022-10-29T13:54:50;97065.44;;;17.45;100.00
32933;BME280;19444;50.518;10.870;2022-10-29T13:58:30;97080.47;;;16.85;100.00
32933;BME280;19444;50.518;10.870;2022-10-29T14:01:31;97081.00;;;16.78;100.00
32933;BME280;19444;50.518;10.870;2022-10-29T14:04:35;97065.03;;;16.65;100.00
32933;BME280;19444;50.518;10.870;2022-10-29T14:07:52;97059.88;;;16.72;100.00
32933;BME280;19444;50.518;10.870;2022-10-29T14:10:58;97061.34;;;16.69;100.00
32933;BME280;19444;50.518;10.870;2022-10-29T14:14:00;97061.28;;;16.90;100.00
32933;BME280;19444;50.518;10.870;2022-10-29T14:17:16;97062.31;;;16.86;100.00
32933;BME280;19444;50.518;10.870;2022-10-29T14:20:27;97059.88;;;16.51;100.00
32933;BME280;19444;50.518;10.870;2022-10-29T14:23:25;97060.50;;;16.36;100.00
32933;BME280;19444;50.518;10.870;2022-10-29T14:26:23;97057.06;;;16.27;100.00
32933;BME280;19444;50.518;10.870;2022-10-29T14:29:22;97051.66;;;16.27;100.00
32933;BME280;19444;50.518;10.870;2022-10-29T14:32:20;97056.28;;;16.26;100.00
32933;BME280;19444;50.518;10.870;2022-10-29T14:35:18;97057.47;;;15.96;100.00
32933;BME280;19444;50.518;10.870;2022-10-29T14:38:17;97059.13;;;16.30;100.00
32933;BME280;19444;50.518;10.870;2022-10-29T14:41:17;97058.50;;;15.82;100.00
32933;BME280;19444;50.518;10.870;2022-10-29T14:44:28;97062.59;;;15.88;100.00
32933;BME280;19444;50.518;10.870;2022-10-29T14:47:47;97059.16;;;15.79;100.00
32933;BME280;19444;50.518;10.870;2022-10-29T14:50:48;97069.88;;;15.67;100.00
32933;BME280;19444;50.518;10.870;2022-10-29T14:53:53;97053.88;;;15.45;100.00
32933;BME280;19444;50.518;10.870;2022-10-29T14:56:57;97061.31;;;15.18;100.00
32933;BME280;19444;50.518;10.870;2022-10-29T15:00:02;97058.44;;;15.23;100.00
32933;BME280;19444;50.518;10.870;2022-10-29T15:02:59;97058.47;;;15.15;100.00
32933;BME280;19444;50.518;10.870;2022-10-29T15:06:19;97063.09;;;15.05;100.00
32933;BME280;19444;50.518;10.870;2022-10-29T15:09:21;97066.63;;;14.97;100.00
32933;BME280;19444;50.518;10.870;2022-10-29T15:12:33;97067.16;;;14.82;100.00
32933;BME280;19444;50.518;10.870;2022-10-29T15:15:30;97065.53;;;14.81;100.00
32933;BME280;19444;50.518;10.870;2022-10-29T15:18:28;97067.44;;;14.80;100.00
32933;BME280;19444;50.518;10.870;2022-10-29T15:21:30;97075.41;;;14.68;100.00
32933;BME280;19444;50.518;10.870;2022-10-29T15:24:28;97070.97;;;14.64;100.00
32933;BME280;19444;50.518;10.870;2022-10-29T15:27:25;97074.75;;;14.63;100.00
32933;BME280;19444;50.518;10.870;2022-10-29T15:30:33;97083.97;;;14.53;100.00
32933;BME280;19444;50.518;10.870;2022-10-29T15:33:31;97077.19;;;14.56;100.00
32933;BME280;19444;50.518;10.870;2022-10-29T15:36:48;97072.53;;;14.30;100.00
32933;BME280;19444;50.518;10.870;2022-10-29T15:40:02;97080.78;;;14.16;100.00
32933;BME280;19444;50.518;10.870;2022-10-29T15:43:29;97071.28;;;14.10;100.00
32933;BME280;19444;50.518;10.870;2022-10-29T15:46:30;97079.97;;;13.90;100.00
32933;BME280;19444;50.518;10.870;2022-10-29T15:49:30;97087.06;;;13.77;100.00
32933;BME280;19444;50.518;10.870;2022-10-29T15:52:37;97081.31;;;13.61;100.00
32933;BME280;19444;50.518;10.870;2022-10-29T15:55:35;97081.78;;;13.55;100.00
32933;BME280;19444;50.518;10.870;2022-10-29T15:58:34;97081.09;;;13.41;100.00
32933;BME280;19444;50.518;10.870;2022-10-29T16:01:31;97083.81;;;13.49;100.00
32933;BME280;19444;50.518;10.870;2022-10-29T16:04:28;97086.59;;;13.27;100.00
32933;BME280;19444;50.518;10.870;2022-10-29T16:07:24;97090.00;;;13.19;100.00
32933;BME280;19444;50.518;10.870;2022-10-29T16:10:21;97092.59;;;13.01;100.00
32933;BME280;19444;50.518;10.870;2022-10-29T16:13:19;97098.88;;;12.97;100.00
32933;BME280;19444;50.518;10.870;2022-10-29T16:16:19;97093.41;;;12.79;100.00
32933;BME280;19444;50.518;10.870;2022-10-29T16:19:16;97093.34;;;12.71;100.00
32933;BME280;19444;50.518;10.870;2022-10-29T16:22:33;97095.06;;;12.67;100.00
32933;BME280;19444;50.518;10.870;2022-10-29T16:25:30;97090.25;;;12.55;100.00
32933;BME280;19444;50.518;10.870;2022-10-29T16:28:27;97092.25;;;12.49;100.00
32933;BME280;19444;50.518;10.870;2022-10-29T16:31:26;97097.75;;;12.44;100.00
32933;BME280;19444;50.518;10.870;2022-10-29T16:34:24;97099.94;;;12.42;100.00
32933;BME280;19444;50.518;10.870;2022-10-29T16:37:20;97105.88;;;12.53;100.00
32933;BME280;19444;50.518;10.870;2022-10-29T16:40:21;97100.13;;;12.46;100.00
32933;BME280;19444;50.518;10.870;2022-10-29T16:43:18;97103.47;;;12.29;100.00
32933;BME280;19444;50.518;10.870;2022-10-29T16:46:15;97110.25;;;12.27;100.00
32933;BME280;19444;50.518;10.870;2022-10-29T16:49:12;97107.25;;;12.28;100.00
32933;BME280;19444;50.518;10.870;2022-10-29T16:52:09;97105.38;;;12.29;100.00
32933;BME280;19444;50.518;10.870;2022-10-29T16:55:06;97108.59;;;12.17;100.00
32933;BME280;19444;50.518;10.870;2022-10-29T16:58:07;97109.06;;;12.19;100.00
32933;BME280;19444;50.518;10.870;2022-10-29T17:01:06;97102.53;;;12.34;100.00
32933;BME280;19444;50.518;10.870;2022-10-29T17:04:04;97100.09;;;12.23;100.00
32933;BME280;19444;50.518;10.870;2022-10-29T17:07:01;97101.59;;;12.16;100.00
32933;BME280;19444;50.518;10.870;2022-10-29T17:09:58;97101.69;;;12.24;100.00